sensor_id;sensor_type;location;lat;lon;timestamp;pressure;altitude;pressure_sealevel;temperature;humidity
82375;BME280;72005;50.496;15.798;2023-11-21T00:01:02;94958.84;;;5.46;94.17
82375;BME280;72005;50.496;15.798;2023-11-21T00:03:38;94956.50;;;5.44;94.35
82375;BME280;72005;50.496;15.798;2023-11-21T00:06:04;94965.56;;;5.41;94.34
82375;BME280;72005;50.496;15.798;2023-11-21T00:08:31;94962.41;;;5.39;94.30
82375;BME280;72005;50.496;15.798;2023-11-21T00:10:57;94969.66;;;5.37;94.21
82375;BME280;72005;50.496;15.798;2023-11-21T00:13:23;94968.88;;;5.37;94.50
82375;BME280;72005;50.496;15.798;2023-11-21T00:15:49;94969.66;;;5.37;94.43
82375;BME280;72005;50.496;15.798;2023-11-21T00:18:15;94967.06;;;5.37;94.25
82375;BME280;72005;50.496;15.798;2023-11-21T00:20:41;94982.69;;;5.37;94.64
82375;BME280;72005;50.496;15.798;2023-11-21T00:23:07;94982.44;;;5.39;94.32
82375;BME280;72005;50.496;15.798;2023-11-21T00:25:35;94983.25;;;5.39;94.73
82375;BME280;72005;50.496;15.798;2023-11-21T00:28:01;94993.66;;;5.39;94.63
82375;BME280;72005;50.496;15.798;2023-11-21T00:30:27;94984.56;;;5.42;94.49
82375;BME280;72005;50.496;15.798;2023-11-21T00:32:54;94987.97;;;5.42;94.72
82375;BME280;72005;50.496;15.798;2023-11-21T00:35:20;95003.69;;;5.48;94.63
82375;BME280;72005;50.496;15.798;2023-11-21T00:37:45;95005.81;;;5.51;94.90
82375;BME280;72005;50.496;15.798;2023-11-21T00:40:12;94997.28;;;5.55;94.99
82375;BME280;72005;50.496;15.798;2023-11-21T00:42:38;94990.78;;;5.58;95.23
82375;BME280;72005;50.496;15.798;2023-11-21T00:45:03;94999.94;;;5.60;94.77
82375;BME280;72005;50.496;15.798;2023-11-21T00:47:29;94997.69;;;5.64;95.06
82375;BME280;72005;50.496;15.798;2023-11-21T00:49:55;94996.63;;;5.65;94.98
82375;BME280;72005;50.496;15.798;2023-11-21T00:52:22;94990.94;;;5.68;94.73
82375;BME280;72005;50.496;15.798;2023-11-21T00:54:47;94993.09;;;5.71;94.80
82375;BME280;72005;50.496;15.798;2023-11-21T00:57:14;94992.03;;;5.72;94.44
82375;BME280;72005;50.496;15.798;2023-11-21T00:59:39;95003.03;;;5.74;94.76
82375;BME280;72005;50.496;15.798;2023-11-21T01:02:05;94999.38;;;5.75;95.09
82375;BME280;72005;50.496;15.798;2023-11-21T01:04:31;94999.16;;;5.77;94.93
82375;BME280;72005;50.496;15.798;2023-11-21T01:06:58;94995.50;;;5.78;95.09
82375;BME280;72005;50.496;15.798;2023-11-21T01:09:23;94992.69;;;5.79;95.27
82375;BME280;72005;50.496;15.798;2023-11-21T01:11:49;95002.63;;;5.82;95.11
82375;BME280;72005;50.496;15.798;2023-11-21T01:14:15;94994.81;;;5.82;94.74
82375;BME280;72005;50.496;15.798;2023-11-21T01:16:43;94994.81;;;5.82;95.01
82375;BME280;72005;50.496;15.798;2023-11-21T01:19:08;95001.84;;;5.82;94.95
82375;BME280;72005;50.496;15.798;2023-11-21T01:21:34;94998.97;;;5.83;94.75
82375;BME280;72005;50.496;15.798;2023-11-21T01:24:00;94990.94;;;5.85;95.17
82375;BME280;72005;50.496;15.798;2023-11-21T01:26:26;94995.66;;;5.88;95.21
82375;BME280;72005;50.496;15.798;2023-11-21T01:28:51;95000.88;;;5.88;95.09
82375;BME280;72005;50.496;15.798;2023-11-21T01:31:17;94991.78;;;5.91;95.28
82375;BME280;72005;50.496;15.798;2023-11-21T01:33:43;95004.38;;;5.94;95.26
82375;BME280;72005;50.496;15.798;2023-11-21T01:36:09;94998.69;;;5.97;95.07
82375;BME280;72005;50.496;15.798;2023-11-21T01:38:35;94991.94;;;6.01;95.29
82375;BME280;72005;50.496;15.798;2023-11-21T01:41:01;94999.28;;;6.04;95.05
82375;BME280;72005;50.496;15.798;2023-11-21T01:43:27;94991.47;;;6.04;95.24
82375;BME280;72005;50.496;15.798;2023-11-21T01:45:56;94993.06;;;6.05;94.87
82375;BME280;72005;50.496;15.798;2023-11-21T01:48:23;95000.09;;;6.04;94.60
82375;BME280;72005;50.496;15.798;2023-11-21T01:50:49;94987.28;;;6.03;95.00
82375;BME280;72005;50.496;15.798;2023-11-21T01:53:15;94989.91;;;6.03;94.81
82375;BME280;72005;50.496;15.798;2023-11-21T01:55:41;94985.72;;;6.02;94.88
82375;BME280;72005;50.496;15.798;2023-11-21T01:58:09;94981.53;;;6.01;94.96
82375;BME280;72005;50.496;15.798;2023-11-21T02:00:37;94986.97;;;5.99;94.73
82375;BME280;72005;50.496;15.798;2023-11-21T02:03:03;94982.56;;;6.00;94.79
82375;BME280;72005;50.496;15.798;2023-11-21T02:05:29;94981.00;;;5.99;94.56
82375;BME280;72005;50.496;15.798;2023-11-21T02:07:55;94986.19;;;5.99;94.70
82375;BME280;72005;50.496;15.798;2023-11-21T02:10:22;94988.56;;;6.00;94.40
82375;BME280;72005;50.496;15.798;2023-11-21T02:12:51;94984.38;;;5.99;94.81
82375;BME280;72005;50.496;15.798;2023-11-21T02:15:19;94986.97;;;5.99;94.50
82375;BME280;72005;50.496;15.798;2023-11-21T02:17:49;94994.03;;;5.99;94.46
82375;BME280;72005;50.496;15.798;2023-11-21T02:20:20;94994.50;;;5.96;94.38
82375;BME280;72005;50.496;15.798;2023-11-21T02:22:54;94993.34;;;5.92;94.40
82375;BME280;72005;50.496;15.798;2023-11-21T02:25:30;94980.81;;;5.88;94.41
82375;BME280;72005;50.496;15.798;2023-11-21T02:28:01;94985.00;;;5.89;94.40
82375;BME280;72005;50.496;15.798;2023-11-21T02:30:27;94979.53;;;5.91;94.52
82375;BME280;72005;50.496;15.798;2023-11-21T02:32:53;94994.72;;;5.94;94.43
82375;BME280;72005;50.496;15.798;2023-11-21T02:35:20;94982.25;;;5.96;94.55
82375;BME280;72005;50.496;15.798;2023-11-21T02:37:47;94988.25;;;5.97;94.58
82375;BME280;72005;50.496;15.798;2023-11-21T02:40:13;94986.19;;;5.99;94.48
82375;BME280;72005;50.496;15.798;2023-11-21T02:42:52;94985.16;;;6.00;94.55
82375;BME280;72005;50.496;15.798;2023-11-21T02:45:19;94984.13;;;6.01;94.58
82375;BME280;72005;50.496;15.798;2023-11-21T02:47:46;94988.31;;;6.02;94.34
82375;BME280;72005;50.496;15.798;2023-11-21T02:50:13;94982.84;;;6.03;94.36
82375;BME280;72005;50.496;15.798;2023-11-21T02:52:39;94979.25;;;6.04;94.68
82375;BME280;72005;50.496;15.798;2023-11-21T02:55:08;94976.38;;;6.06;94.50
82375;BME280;72005;50.496;15.798;2023-11-21T02:57:33;94982.16;;;6.08;94.76
82375;BME280;72005;50.496;15.798;2023-11-21T02:59:59;94983.16;;;6.07;94.52
82375;BME280;72005;50.496;15.798;2023-11-21T03:02:25;94984.75;;;6.08;94.50
82375;BME280;72005;50.496;15.798;2023-11-21T03:04:51;94984.75;;;6.08;94.33
82375;BME280;72005;50.496;15.798;2023-11-21T03:07:17;94981.88;;;6.09;94.51
82375;BME280;72005;50.496;15.798;2023-11-21T03:09:45;94977.50;;;6.10;94.88
82375;BME280;72005;50.496;15.798;2023-11-21T03:12:11;94989.00;;;6.14;94.58
82375;BME280;72005;50.496;15.798;2023-11-21T03:14:40;94985.59;;;6.14;94.34
82375;BME280;72005;50.496;15.798;2023-11-21T03:17:06;94982.22;;;6.13;94.32
82375;BME280;72005;50.496;15.798;2023-11-21T03:19:32;94993.44;;;6.14;94.79
82375;BME280;72005;50.496;15.798;2023-11-21T03:21:57;94987.19;;;6.15;94.66
82375;BME280;72005;50.496;15.798;2023-11-21T03:24:24;94993.72;;;6.17;94.50
82375;BME280;72005;50.496;15.798;2023-11-21T03:26:50;94990.06;;;6.18;94.60
82375;BME280;72005;50.496;15.798;2023-11-21T03:29:16;94983.53;;;6.16;94.56
82375;BME280;72005;50.496;15.798;2023-11-21T03:31:42;94986.94;;;6.16;94.71
82375;BME280;72005;50.496;15.798;2023-11-21T03:34:14;94994.22;;;6.14;94.63
82375;BME280;72005;50.496;15.798;2023-11-21T03:36:40;94993.16;;;6.15;94.58
82375;BME280;72005;50.496;15.798;2023-11-21T03:39:06;94992.94;;;6.17;94.63
82375;BME280;72005;50.496;15.798;2023-11-21T03:41:31;95000.75;;;6.17;94.84
82375;BME280;72005;50.496;15.798;2023-11-21T03:43:57;95000.50;;;6.18;94.34
82375;BME280;72005;50.496;15.798;2023-11-21T03:46:23;95009.38;;;6.17;94.34
82375;BME280;72005;50.496;15.798;2023-11-21T03:48:48;95005.72;;;6.18;94.88
82375;BME280;72005;50.496;15.798;2023-11-21T03:51:14;95010.94;;;6.18;94.72
82375;BME280;72005;50.496;15.798;2023-11-21T03:53:40;95002.88;;;6.20;94.68
82375;BME280;72005;50.496;15.798;2023-11-21T03:56:05;95008.88;;;6.20;94.90
82375;BME280;72005;50.496;15.798;2023-11-21T03:58:31;95014.41;;;6.24;94.39
82375;BME280;72005;50.496;15.798;2023-11-21T04:00:57;95013.38;;;6.25;94.83
82375;BME280;72005;50.496;15.798;2023-11-21T04:03:23;95014.72;;;6.27;94.59
82375;BME280;72005;50.496;15.798;2023-11-21T04:05:48;95014.97;;;6.26;94.33
82375;BME280;72005;50.496;15.798;2023-11-21T04:08:14;95014.72;;;6.27;94.82
82375;BME280;72005;50.496;15.798;2023-11-21T04:10:39;95018.13;;;6.28;94.86
82375;BME280;72005;50.496;15.798;2023-11-21T04:13:06;95015.50;;;6.28;94.93
82375;BME280;72005;50.496;15.798;2023-11-21T04:15:32;95019.47;;;6.30;94.59
82375;BME280;72005;50.496;15.798;2023-11-21T04:17:58;95013.19;;;6.31;95.14
82375;BME280;72005;50.496;15.798;2023-11-21T04:20:24;95016.84;;;6.30;94.75
82375;BME280;72005;50.496;15.798;2023-11-21T04:22:50;95022.59;;;6.32;94.70
82375;BME280;72005;50.496;15.798;2023-11-21T04:25:16;95018.41;;;6.31;94.60
82375;BME280;72005;50.496;15.798;2023-11-21T04:27:43;95023.41;;;6.33;95.01
82375;BME280;72005;50.496;15.798;2023-11-21T04:30:10;95019.97;;;6.32;94.62
82375;BME280;72005;50.496;15.798;2023-11-21T04:32:36;95017.94;;;6.35;94.33
82375;BME280;72005;50.496;15.798;2023-11-21T04:35:02;95017.69;;;6.36;94.72
82375;BME280;72005;50.496;15.798;2023-11-21T04:37:29;95017.69;;;6.36;94.64
82375;BME280;72005;50.496;15.798;2023-11-21T04:39:55;95023.69;;;6.37;94.45
82375;BME280;72005;50.496;15.798;2023-11-21T04:42:21;95027.09;;;6.37;94.56
82375;BME280;72005;50.496;15.798;2023-11-21T04:44:47;95022.91;;;6.36;94.59
82375;BME280;72005;50.496;15.798;2023-11-21T04:47:12;95029.41;;;6.33;94.58
82375;BME280;72005;50.496;15.798;2023-11-21T04:49:41;95023.63;;;6.31;94.51
82375;BME280;72005;50.496;15.798;2023-11-21T04:52:07;95027.03;;;6.32;94.32
82375;BME280;72005;50.496;15.798;2023-11-21T04:54:35;95025.19;;;6.32;94.57
82375;BME280;72005;50.496;15.798;2023-11-21T04:57:01;95032.00;;;6.33;94.39
82375;BME280;72005;50.496;15.798;2023-11-21T04:59:27;95029.41;;;6.33;94.62
82375;BME280;72005;50.496;15.798;2023-11-21T05:01:53;95023.16;;;6.35;94.69
82375;BME280;72005;50.496;15.798;2023-11-21T05:04:20;95019.75;;;6.34;94.36
82375;BME280;72005;50.496;15.798;2023-11-21T05:06:48;95028.38;;;6.35;94.42
82375;BME280;72005;50.496;15.798;2023-11-21T05:09:13;95027.31;;;6.36;94.48
82375;BME280;72005;50.496;15.798;2023-11-21T05:11:39;95029.41;;;6.33;94.45
82375;BME280;72005;50.496;15.798;2023-11-21T05:14:06;95029.41;;;6.33;94.15
82375;BME280;72005;50.496;15.798;2023-11-21T05:16:32;95025.75;;;6.35;94.07
82375;BME280;72005;50.496;15.798;2023-11-21T05:18:59;95030.41;;;6.32;94.25
82375;BME280;72005;50.496;15.798;2023-11-21T05:21:30;95034.63;;;6.33;94.47
82375;BME280;72005;50.496;15.798;2023-11-21T05:23:58;95036.44;;;6.33;94.59
82375;BME280;72005;50.496;15.798;2023-11-21T05:26:24;95033.03;;;6.32;94.21
82375;BME280;72005;50.496;15.798;2023-11-21T05:28:50;95042.94;;;6.30;93.95
82375;BME280;72005;50.496;15.798;2023-11-21T05:31:15;95040.31;;;6.30;93.84
82375;BME280;72005;50.496;15.798;2023-11-21T05:33:41;95040.81;;;6.27;94.04
82375;BME280;72005;50.496;15.798;2023-11-21T05:36:07;95042.84;;;6.25;94.16
82375;BME280;72005;50.496;15.798;2023-11-21T05:38:35;95038.91;;;6.23;93.84
82375;BME280;72005;50.496;15.798;2023-11-21T05:41:01;95046.97;;;6.21;93.67
82375;BME280;72005;50.496;15.798;2023-11-21T05:43:27;95039.41;;;6.20;93.93
82375;BME280;72005;50.496;15.798;2023-11-21T05:45:55;95046.66;;;6.18;93.96
82375;BME280;72005;50.496;15.798;2023-11-21T05:48:20;95053.69;;;6.17;94.03
82375;BME280;72005;50.496;15.798;2023-11-21T05:50:46;95052.66;;;6.18;93.69
82375;BME280;72005;50.496;15.798;2023-11-21T05:53:14;95050.06;;;6.18;94.24
82375;BME280;72005;50.496;15.798;2023-11-21T05:55:41;95054.25;;;6.19;94.00
82375;BME280;72005;50.496;15.798;2023-11-21T05:58:07;95053.22;;;6.20;94.10
82375;BME280;72005;50.496;15.798;2023-11-21T06:00:34;95055.03;;;6.20;94.24
82375;BME280;72005;50.496;15.798;2023-11-21T06:03:00;95053.22;;;6.20;94.18
82375;BME280;72005;50.496;15.798;2023-11-21T06:05:26;95055.03;;;6.20;94.37
82375;BME280;72005;50.496;15.798;2023-11-21T06:07:53;95056.59;;;6.21;94.26
82375;BME280;72005;50.496;15.798;2023-11-21T06:10:20;95064.19;;;6.22;94.18
82375;BME280;72005;50.496;15.798;2023-11-21T06:12:46;95066.03;;;6.22;94.23
82375;BME280;72005;50.496;15.798;2023-11-21T06:15:12;95071.25;;;6.22;94.03
82375;BME280;72005;50.496;15.798;2023-11-21T06:17:42;95082.19;;;6.24;94.33
82375;BME280;72005;50.496;15.798;2023-11-21T06:20:09;95069.97;;;6.24;93.99
82375;BME280;72005;50.496;15.798;2023-11-21T06:22:41;95056.94;;;6.24;94.20
82375;BME280;72005;50.496;15.798;2023-11-21T06:25:07;95070.50;;;6.26;94.15
82375;BME280;72005;50.496;15.798;2023-11-21T06:27:39;95070.50;;;6.26;94.08
82375;BME280;72005;50.496;15.798;2023-11-21T06:30:06;95072.09;;;6.27;94.43
82375;BME280;72005;50.496;15.798;2023-11-21T06:32:32;95071.84;;;6.29;94.12
82375;BME280;72005;50.496;15.798;2023-11-21T06:34:58;95073.66;;;6.28;94.14
82375;BME280;72005;50.496;15.798;2023-11-21T06:37:28;95073.66;;;6.28;93.86
82375;BME280;72005;50.496;15.798;2023-11-21T06:39:54;95076.03;;;6.30;94.16
82375;BME280;72005;50.496;15.798;2023-11-21T06:42:22;95077.63;;;6.31;94.05
82375;BME280;72005;50.496;15.798;2023-11-21T06:44:48;95087.00;;;6.32;94.01
82375;BME280;72005;50.496;15.798;2023-11-21T06:47:14;95090.88;;;6.29;94.11
82375;BME280;72005;50.496;15.798;2023-11-21T06:49:42;95087.75;;;6.27;93.87
82375;BME280;72005;50.496;15.798;2023-11-21T06:52:08;95096.59;;;6.26;93.97
82375;BME280;72005;50.496;15.798;2023-11-21T06:54:34;95090.59;;;6.26;93.92
82375;BME280;72005;50.496;15.798;2023-11-21T06:57:00;95094.22;;;6.25;93.74
82375;BME280;72005;50.496;15.798;2023-11-21T06:59:28;95101.25;;;6.24;93.46
82375;BME280;72005;50.496;15.798;2023-11-21T07:01:53;95097.06;;;6.23;93.71
82375;BME280;72005;50.496;15.798;2023-11-21T07:04:20;95101.50;;;6.23;93.48
82375;BME280;72005;50.496;15.798;2023-11-21T07:06:45;95105.44;;;6.25;93.50
82375;BME280;72005;50.496;15.798;2023-11-21T07:09:11;95101.78;;;6.26;93.71
82375;BME280;72005;50.496;15.798;2023-11-21T07:11:37;95095.56;;;6.27;94.24
82375;BME280;72005;50.496;15.798;2023-11-21T07:14:06;95103.69;;;6.31;93.70
82375;BME280;72005;50.496;15.798;2023-11-21T07:16:36;95096.19;;;6.35;93.85
82375;BME280;72005;50.496;15.798;2023-11-21T07:19:05;95105.09;;;6.39;93.96
82375;BME280;72005;50.496;15.798;2023-11-21T07:21:34;95101.78;;;6.43;94.04
82375;BME280;72005;50.496;15.798;2023-11-21T07:24:02;95105.25;;;6.49;94.24
82375;BME280;72005;50.496;15.798;2023-11-21T07:26:28;95104.56;;;6.59;94.11
82375;BME280;72005;50.496;15.798;2023-11-21T07:28:54;95104.16;;;6.67;94.75
82375;BME280;72005;50.496;15.798;2023-11-21T07:31:20;95108.72;;;6.76;94.73
82375;BME280;72005;50.496;15.798;2023-11-21T07:33:48;95107.81;;;6.88;94.64
82375;BME280;72005;50.496;15.798;2023-11-21T07:36:15;95104.16;;;7.11;94.59
82375;BME280;72005;50.496;15.798;2023-11-21T07:38:42;95106.56;;;7.72;95.48
82375;BME280;72005;50.496;15.798;2023-11-21T07:41:08;95108.03;;;8.69;96.60
82375;BME280;72005;50.496;15.798;2023-11-21T07:43:35;95096.94;;;9.15;95.74
82375;BME280;72005;50.496;15.798;2023-11-21T07:46:02;95102.66;;;9.01;92.97
82375;BME280;72005;50.496;15.798;2023-11-21T07:48:31;95095.56;;;8.87;91.96
82375;BME280;72005;50.496;15.798;2023-11-21T07:51:00;95104.13;;;8.72;90.96
82375;BME280;72005;50.496;15.798;2023-11-21T07:53:26;95099.59;;;8.57;90.41
82375;BME280;72005;50.496;15.798;2023-11-21T07:56:02;95104.50;;;8.48;90.19
82375;BME280;72005;50.496;15.798;2023-11-21T07:58:28;95116.75;;;8.38;90.39
82375;BME280;72005;50.496;15.798;2023-11-21T08:00:53;95100.41;;;8.25;90.36
82375;BME280;72005;50.496;15.798;2023-11-21T08:03:19;95099.59;;;8.14;89.95
82375;BME280;72005;50.496;15.798;2023-11-21T08:05:46;95110.75;;;8.05;90.05
82375;BME280;72005;50.496;15.798;2023-11-21T08:08:12;95107.59;;;8.03;89.75
82375;BME280;72005;50.496;15.798;2023-11-21T08:10:38;95105.22;;;8.01;90.32
82375;BME280;72005;50.496;15.798;2023-11-21T08:13:05;95108.59;;;7.97;89.91
82375;BME280;72005;50.496;15.798;2023-11-21T08:15:31;95105.97;;;7.97;90.28
82375;BME280;72005;50.496;15.798;2023-11-21T08:17:58;95110.78;;;8.10;90.62
82375;BME280;72005;50.496;15.798;2023-11-21T08:20:26;95108.00;;;8.22;90.69
82375;BME280;72005;50.496;15.798;2023-11-21T08:22:52;95103.97;;;8.41;90.78
82375;BME280;72005;50.496;15.798;2023-11-21T08:25:18;95110.69;;;8.79;91.49
82375;BME280;72005;50.496;15.798;2023-11-21T08:27:46;95115.75;;;8.96;91.03
82375;BME280;72005;50.496;15.798;2023-11-21T08:30:12;95109.47;;;9.02;90.65
82375;BME280;72005;50.496;15.798;2023-11-21T08:32:39;95120.78;;;9.13;89.94
82375;BME280;72005;50.496;15.798;2023-11-21T08:35:07;95116.94;;;9.46;90.40
82375;BME280;72005;50.496;15.798;2023-11-21T08:37:33;95123.81;;;9.93;90.58
82375;BME280;72005;50.496;15.798;2023-11-21T08:40:05;95112.44;;;10.80;90.95
82375;BME280;72005;50.496;15.798;2023-11-21T08:42:37;95108.72;;;11.51;89.86
82375;BME280;72005;50.496;15.798;2023-11-21T08:45:04;95106.38;;;11.89;88.08
82375;BME280;72005;50.496;15.798;2023-11-21T08:47:30;95106.44;;;12.13;86.58
82375;BME280;72005;50.496;15.798;2023-11-21T08:49:55;95107.03;;;12.34;85.51
82375;BME280;72005;50.496;15.798;2023-11-21T08:52:21;95100.75;;;12.59;84.46
82375;BME280;72005;50.496;15.798;2023-11-21T08:54:49;95105.56;;;13.00;83.73
82375;BME280;72005;50.496;15.798;2023-11-21T08:57:25;95108.13;;;13.05;82.08
82375;BME280;72005;50.496;15.798;2023-11-21T08:59:51;95111.56;;;12.81;80.59
82375;BME280;72005;50.496;15.798;2023-11-21T09:02:23;95121.94;;;12.49;80.41
82375;BME280;72005;50.496;15.798;2023-11-21T09:04:49;95116.44;;;12.11;79.84
82375;BME280;72005;50.496;15.798;2023-11-21T09:07:16;95127.44;;;11.84;80.50
82375;BME280;72005;50.496;15.798;2023-11-21T09:09:41;95133.88;;;11.62;80.76
82375;BME280;72005;50.496;15.798;2023-11-21T09:12:07;95141.06;;;11.46;81.13
82375;BME280;72005;50.496;15.798;2023-11-21T09:14:33;95142.47;;;11.28;81.58
82375;BME280;72005;50.496;15.798;2023-11-21T09:16:59;95145.69;;;11.10;81.47
82375;BME280;72005;50.496;15.798;2023-11-21T09:19:25;95147.38;;;10.86;81.53
82375;BME280;72005;50.496;15.798;2023-11-21T09:21:51;95147.91;;;10.67;81.77
82375;BME280;72005;50.496;15.798;2023-11-21T09:24:17;95150.88;;;10.45;81.96
82375;BME280;72005;50.496;15.798;2023-11-21T09:26:43;95151.13;;;10.28;82.20
82375;BME280;72005;50.496;15.798;2023-11-21T09:29:08;95155.31;;;10.14;82.50
82375;BME280;72005;50.496;15.798;2023-11-21T09:31:34;95151.38;;;10.01;82.98
82375;BME280;72005;50.496;15.798;2023-11-21T09:34:00;95158.94;;;9.92;83.10
82375;BME280;72005;50.496;15.798;2023-11-21T09:36:27;95151.34;;;9.81;83.32
82375;BME280;72005;50.496;15.798;2023-11-21T09:38:55;95157.91;;;9.73;83.53
82375;BME280;72005;50.496;15.798;2023-11-21T09:42:13;95145.28;;;9.60;83.66
82375;BME280;72005;50.496;15.798;2023-11-21T09:44:14;95150.78;;;9.53;84.26
82375;BME280;72005;50.496;15.798;2023-11-21T09:46:43;95159.41;;;9.48;84.76
82375;BME280;72005;50.496;15.798;2023-11-21T09:49:09;95158.88;;;9.41;84.34
82375;BME280;72005;50.496;15.798;2023-11-21T09:51:42;95158.59;;;9.33;84.79
82375;BME280;72005;50.496;15.798;2023-11-21T09:54:10;95161.44;;;9.21;84.86
82375;BME280;72005;50.496;15.798;2023-11-21T09:56:39;95159.53;;;9.11;84.74
82375;BME280;72005;50.496;15.798;2023-11-21T09:59:06;95160.31;;;9.01;84.92
82375;BME280;72005;50.496;15.798;2023-11-21T10:01:36;95169.16;;;8.90;85.32
82375;BME280;72005;50.496;15.798;2023-11-21T10:04:03;95163.63;;;8.87;85.82
82375;BME280;72005;50.496;15.798;2023-11-21T10:06:30;95157.81;;;8.79;86.20
82375;BME280;72005;50.496;15.798;2023-11-21T10:08:56;95162.78;;;8.76;85.99
82375;BME280;72005;50.496;15.798;2023-11-21T10:11:25;95165.66;;;8.74;86.39
82375;BME280;72005;50.496;15.798;2023-11-21T10:13:56;95161.72;;;8.72;86.16
82375;BME280;72005;50.496;15.798;2023-11-21T10:16:26;95164.31;;;8.67;86.55
82375;BME280;72005;50.496;15.798;2023-11-21T10:18:53;95165.34;;;8.66;86.75
82375;BME280;72005;50.496;15.798;2023-11-21T10:21:21;95162.94;;;8.59;86.69
82375;BME280;72005;50.496;15.798;2023-11-21T10:23:47;95161.38;;;8.58;86.83
82375;BME280;72005;50.496;15.798;2023-11-21T10:26:13;95167.91;;;8.55;87.19
82375;BME280;72005;50.496;15.798;2023-11-21T10:28:58;95164.75;;;8.53;87.15
82375;BME280;72005;50.496;15.798;2023-11-21T10:31:27;95172.59;;;8.53;86.89
82375;BME280;72005;50.496;15.798;2023-11-21T10:33:52;95167.81;;;8.45;86.89
82375;BME280;72005;50.496;15.798;2023-11-21T10:36:28;95169.31;;;8.36;87.01
82375;BME280;72005;50.496;15.798;2023-11-21T10:38:54;95168.75;;;8.34;87.57
82375;BME280;72005;50.496;15.798;2023-11-21T10:41:20;95173.97;;;8.29;87.70
82375;BME280;72005;50.496;15.798;2023-11-21T10:43:46;95179.72;;;8.26;87.65
82375;BME280;72005;50.496;15.798;2023-11-21T10:46:13;95177.09;;;8.26;87.86
82375;BME280;72005;50.496;15.798;2023-11-21T10:48:41;95178.13;;;8.25;87.86
82375;BME280;72005;50.496;15.798;2023-11-21T10:51:08;95179.41;;;8.22;87.31
82375;BME280;72005;50.496;15.798;2023-11-21T10:53:38;95176.47;;;8.13;87.36
82375;BME280;72005;50.496;15.798;2023-11-21T10:56:09;95177.47;;;8.07;87.58
82375;BME280;72005;50.496;15.798;2023-11-21T10:58:38;95172.22;;;8.07;87.63
82375;BME280;72005;50.496;15.798;2023-11-21T11:01:06;95169.38;;;8.09;87.66
82375;BME280;72005;50.496;15.798;2023-11-21T11:03:32;95179.53;;;8.05;88.36
82375;BME280;72005;50.496;15.798;2023-11-21T11:05:59;95170.66;;;8.06;88.17
82375;BME280;72005;50.496;15.798;2023-11-21T11:08:26;95175.38;;;8.09;88.36
82375;BME280;72005;50.496;15.798;2023-11-21T11:10:53;95172.22;;;8.07;88.72
82375;BME280;72005;50.496;15.798;2023-11-21T11:13:18;95174.59;;;8.09;88.73
82375;BME280;72005;50.496;15.798;2023-11-21T11:15:47;95167.78;;;8.08;88.40
82375;BME280;72005;50.496;15.798;2023-11-21T11:18:14;95167.78;;;8.08;88.73
82375;BME280;72005;50.496;15.798;2023-11-21T11:20:42;95173.31;;;8.11;88.50
82375;BME280;72005;50.496;15.798;2023-11-21T11:26:24;95163.66;;;8.12;88.53
82375;BME280;72005;50.496;15.798;2023-11-21T11:34:53;95162.88;;;8.11;89.03
82375;BME280;72005;50.496;15.798;2023-11-21T11:37:22;95165.22;;;8.13;88.84
82375;BME280;72005;50.496;15.798;2023-11-21T11:39:49;95166.00;;;8.13;88.68
82375;BME280;72005;50.496;15.798;2023-11-21T11:42:16;95162.38;;;8.14;88.65
82375;BME280;72005;50.496;15.798;2023-11-21T11:47:28;95173.31;;;8.11;88.93
82375;BME280;72005;50.496;15.798;2023-11-21T11:52:37;95168.00;;;8.01;89.15
82375;BME280;72005;50.496;15.798;2023-11-21T11:55:15;95165.38;;;8.01;88.97
82375;BME280;72005;50.496;15.798;2023-11-21T11:57:46;95165.63;;;8.00;88.74
82375;BME280;72005;50.496;15.798;2023-11-21T12:02:56;95176.88;;;8.00;88.91
82375;BME280;72005;50.496;15.798;2023-11-21T12:05:25;95180.53;;;7.99;88.99
82375;BME280;72005;50.496;15.798;2023-11-21T12:07:58;95176.34;;;7.98;88.79
82375;BME280;72005;50.496;15.798;2023-11-21T12:10:26;95180.25;;;7.96;88.94
82375;BME280;72005;50.496;15.798;2023-11-21T12:12:55;95177.88;;;7.94;88.88
82375;BME280;72005;50.496;15.798;2023-11-21T12:15:21;95173.69;;;7.93;89.03
82375;BME280;72005;50.496;15.798;2023-11-21T12:17:48;95181.22;;;7.89;88.59
82375;BME280;72005;50.496;15.798;2023-11-21T12:20:22;95181.47;;;7.88;88.97
82375;BME280;72005;50.496;15.798;2023-11-21T12:22:52;95181.22;;;7.89;88.70
82375;BME280;72005;50.496;15.798;2023-11-21T12:25:20;95178.84;;;7.88;88.60
82375;BME280;72005;50.496;15.798;2023-11-21T12:27:56;95181.72;;;7.86;88.92
82375;BME280;72005;50.496;15.798;2023-11-21T12:30:27;95183.28;;;7.87;88.57
82375;BME280;72005;50.496;15.798;2023-11-21T12:33:02;95182.78;;;7.85;88.74
82375;BME280;72005;50.496;15.798;2023-11-21T12:35:32;95180.91;;;7.81;88.82
82375;BME280;72005;50.496;15.798;2023-11-21T12:38:02;95178.50;;;7.79;88.54
82375;BME280;72005;50.496;15.798;2023-11-21T12:40:30;95187.63;;;7.77;88.79
82375;BME280;72005;50.496;15.798;2023-11-21T12:42:58;95181.63;;;7.76;88.93
82375;BME280;72005;50.496;15.798;2023-11-21T12:45:28;95183.22;;;7.77;89.06
82375;BME280;72005;50.496;15.798;2023-11-21T12:48:01;95181.88;;;7.75;88.83
82375;BME280;72005;50.496;15.798;2023-11-21T12:50:30;95190.22;;;7.72;89.11
82375;BME280;72005;50.496;15.798;2023-11-21T12:53:02;95190.22;;;7.72;88.89
82375;BME280;72005;50.496;15.798;2023-11-21T12:55:31;95193.31;;;7.68;89.08
82375;BME280;72005;50.496;15.798;2023-11-21T12:57:57;95194.13;;;7.69;89.35
82375;BME280;72005;50.496;15.798;2023-11-21T13:00:33;95192.50;;;7.68;89.64
82375;BME280;72005;50.496;15.798;2023-11-21T13:03:04;95193.84;;;7.71;89.64
82375;BME280;72005;50.496;15.798;2023-11-21T13:05:32;95195.44;;;7.72;89.64
82375;BME280;72005;50.496;15.798;2023-11-21T13:08:01;95197.03;;;7.73;89.54
82375;BME280;72005;50.496;15.798;2023-11-21T13:10:29;95197.28;;;7.71;89.88
82375;BME280;72005;50.496;15.798;2023-11-21T13:13:00;95198.28;;;7.70;89.36
82375;BME280;72005;50.496;15.798;2023-11-21T13:15:29;95204.31;;;7.71;89.40
82375;BME280;72005;50.496;15.798;2023-11-21T13:17:57;95199.06;;;7.71;89.10